Strona główna
METAR-TAF:

METAR-TAF

Lotnisko :

Montichiari

Brescia, Włochy

Szerokość geograficzna: 45-24-02N, Długość geograficzna: 010-18-59E, wysokość: 104 m

Aktualna obserwacja pogody

Raport powstał 56 minut temu, godzina 16:50 UTC
Wiatr 3 kt od południowo-południowy zachód, zmienny między południe i południowy zachód
Temperatura 12°C
Wilgotność 40%
Ciśnienie 1023 hPa
Widzialność 10 km lub więcej
Brak chmur poniżej 1500 m i brak chmur cumulonimbus

METAR: LIPO 201650Z 21003KT 170V230 CAVOK 12/M01 Q1023

czas: 18:46 (17:46 UTC)

Prognoza

Raport powstał 12 godziny i 46 minut temu, godzina 05:00 UTC
Prognoza ważna od 20 godzina 06 UTC do 21 godzina 06 UTC
Wiatr 5 kt z kierunków zmiennych
Widzialność 10 km lub więcej
Brak chmur poniżej 1500 m i brak chmur cumulonimbus

TAF: LIPO 200500Z 2006/2106 VRB05KT CAVOK

Obserwacja i prognoza pogody dla ponad 4000 lotnisk (raport METAR i TAF).

Dostępne stacje oznaczono żółtymi i czerwonymi punktami na mapie.

Najedź kursorem aby zobaczyć nazwę stacji.

Kliknij aby zobaczyć obserwacje i prognozy pogody.

Aby zmienić mapę: kliknij na zielony przycisk z czarnym krzyżykiem, aby powiększyć; na zielony przycisk z myślnikiem, aby pomniejszyć; na zielone strzałki, aby przejść do map sąsiednich.


METAR-TAF: